Ana Sayfa
METAR-TAF:

METAR-TAF

Havaalanları :

Puerto Peñasco, Meksika

Enlem: 31-21-07N, Boylam: 113-18-20W, yükseklik: 22 m

Güncel hava durumu gözlemi

Rapor saat 23:45 UTC de 6 saat ve 43 dakika önce yapıldı.
Rüzgar güneydan 9 kt
Sıcaklık 37°C
Nem 31%
Basınç 1009 hPa
Görüş mesafesi: 16.1 km
Açık gökyüzü

METAR: MMPE 232345Z 19009KT 10SM SKC 37/17 A2981

Saat: 23:28 (06:28 UTC)


TAF: eksik

4.000'den fazla havaalanı için hava durumu gözlemleri ve tahminleri (METAR ve TAF raporları).

Kullanılabilir istasyonlar harita üzerinde sarı ve kırmızı noktalarla gösterilir.

İstasyonun adını görmek için fareyi noktanın üzerinde gezdirin.

Sonrasında hava gözlem ve tahminlerini görmek için tıklayın.

Haritayı değiştirmek için: yaklaştırmak için siyah artı işaretli yeşil düğmeye ve uzaklaştırmak için de eksi işaretli düğmeye hızla tıklayın; bitişik haritalar için yeşil okları kullanın.


METAR-TAF: